Time;durP1;ratioP1;P1;durP2;ratioP2;P2;SDS_P1;SDS_P2;PMS_P1;PMS_P2;Temp;Humidity;BMP_temperature;BMP_pressure;BME280_temperature;BME280_humidity;BME280_pressure;Samples;Min_cycle;Max_cycle;Signal;HPM_P1;HPM_P2
2023/11/07 00:02:14;;;;;;;;;3.25;3.25;;;;;13.23;82.63;100570.63;5060316;28;46253;-64
2023/11/07 00:04:41;;;;;;;;;1.50;1.50;;;;;13.20;82.85;100568.06;5060345;28;45326;-64
2023/11/07 00:07:07;;;;;;;;;3.75;3.75;;;;;13.11;82.75;100547.03;5060949;28;45397;-64
2023/11/07 00:09:32;;;;;;;;;6.25;4.00;;;;;13.22;82.99;100570.69;5060170;28;45327;-64
2023/11/07 00:11:59;;;;;;;;;5.50;4.75;;;;;13.22;83.05;100571.53;5060338;28;45965;-64
2023/11/07 00:14:24;;;;;;;;;4.00;3.50;;;;;13.23;82.82;100564.34;5061334;28;46766;-64
2023/11/07 00:16:50;;;;;;;;;5.00;5.00;;;;;13.19;82.71;100568.13;5065573;28;45451;-64
2023/11/07 00:19:16;;;;;;;;;4.00;3.75;;;;;13.19;83.14;100566.31;5076344;27;69262;-64
2023/11/07 00:21:41;;;;;;;;;4.25;4.00;;;;;13.23;83.18;100562.56;5059782;28;45394;-64
2023/11/07 00:24:07;;;;;;;;;3.75;3.75;;;;;13.19;82.99;100555.59;5067786;28;53028;-64
2023/11/07 00:26:34;;;;;;;;;4.25;3.00;;;;;13.24;83.00;100563.44;5061559;28;45310;-64
2023/11/07 00:28:59;;;;;;;;;4.25;3.50;;;;;13.26;83.17;100564.22;5063293;27;45354;-64
2023/11/07 00:31:24;;;;;;;;;5.00;4.25;;;;;13.23;83.00;100562.56;5059885;28;46585;-64
2023/11/07 00:33:50;;;;;;;;;4.50;2.00;;;;;13.23;82.98;100565.25;5058540;28;73370;-64
2023/11/07 00:36:16;;;;;;;;;3.00;3.00;;;;;13.26;82.96;100573.13;5059768;28;45285;-64
2023/11/07 00:38:41;;;;;;;;;4.00;4.00;;;;;13.22;83.07;100566.19;5062302;28;45400;-64
2023/11/07 00:41:07;;;;;;;;;3.00;3.00;;;;;13.22;83.07;100576.91;5068457;28;47229;-64
2023/11/07 00:43:32;;;;;;;;;4.00;3.75;;;;;13.26;83.07;100583.84;5079730;27;45389;-64
2023/11/07 00:45:58;;;;;;;;;4.00;3.25;;;;;13.27;83.17;100584.75;5069491;27;45476;-64
2023/11/07 00:48:23;;;;;;;;;3.25;3.25;;;;;13.26;83.07;100591.88;5059591;28;45320;-64
2023/11/07 00:50:49;;;;;;;;;4.25;3.00;;;;;13.20;83.05;100580.56;5059480;28;45374;-64
2023/11/07 00:53:15;;;;;;;;;3.75;3.75;;;;;13.24;83.23;100584.88;5073250;28;45514;-64
2023/11/07 00:55:40;;;;;;;;;3.25;2.75;;;;;13.21;83.24;100580.50;5071596;27;45319;-64
2023/11/07 00:58:05;;;;;;;;;3.00;3.00;;;;;13.26;82.79;100585.66;5071294;28;61304;-64
2023/11/07 01:00:33;;;;;;;;;2.75;2.75;;;;;13.26;83.06;100583.84;5070445;28;70297;-64
2023/11/07 01:02:59;;;;;;;;;3.25;3.25;;;;;13.26;82.84;100586.53;5059283;28;45713;-64
2023/11/07 01:05:24;;;;;;;;;3.00;2.25;;;;;13.27;82.99;100603.50;5059741;28;45327;-64
2023/11/07 01:07:50;;;;;;;;;2.50;2.50;;;;;13.23;82.81;100586.69;5071635;28;45258;-64
2023/11/07 01:10:15;;;;;;;;;1.50;1.50;;;;;13.29;82.92;100594.44;5059264;28;46156;-64
2023/11/07 01:12:40;;;;;;;;;2.00;2.00;;;;;13.25;82.92;100594.66;5059171;28;45483;-64
2023/11/07 01:15:06;;;;;;;;;4.50;3.50;;;;;13.26;82.61;100599.06;5059332;28;45353;-64
2023/11/07 01:17:32;;;;;;;;;3.00;2.00;;;;;13.28;82.50;100602.53;5070699;28;45383;-64
2023/11/07 01:19:57;;;;;;;;;3.00;2.00;;;;;13.28;82.56;100608.78;5065184;28;45672;-64
2023/11/07 01:22:22;;;;;;;;;1.00;1.00;;;;;13.16;82.27;100590.56;5057771;28;70492;-64
2023/11/07 01:24:48;;;;;;;;;1.00;1.00;;;;;13.27;82.60;100628.50;5058460;28;61014;-64
2023/11/07 01:27:13;;;;;;;;;1.00;1.00;;;;;13.26;82.54;100625.88;5058625;28;45374;-64
2023/11/07 01:29:39;;;;;;;;;4.50;2.00;;;;;13.24;82.23;100617.91;5057777;28;66584;-64
2023/11/07 01:32:05;;;;;;;;;1.75;1.00;;;;;13.20;82.33;100619.00;5077077;28;45782;-64
2023/11/07 01:34:30;;;;;;;;;1.00;1.00;;;;;13.22;81.73;100629.66;5079275;27;45343;-64
2023/11/07 01:36:55;;;;;;;;;1.00;1.00;;;;;13.21;81.73;100626.06;5074332;28;45435;-64
2023/11/07 01:39:20;;;;;;;;;1.00;1.00;;;;;13.13;81.90;100622.88;5059880;28;45543;-64
2023/11/07 01:41:46;;;;;;;;;2.00;2.00;;;;;13.23;81.79;100632.25;5062745;28;72169;-64
2023/11/07 01:44:11;;;;;;;;;1.75;1.00;;;;;13.20;81.46;100637.75;5076005;28;58055;-64
2023/11/07 01:46:37;;;;;;;;;1.25;1.00;;;;;13.21;81.62;100635.94;5064055;27;45505;-64
2023/11/07 01:49:03;;;;;;;;;0.50;0.50;;;;;13.20;81.49;100629.72;5079154;27;45528;-64
2023/11/07 01:51:30;;;;;;;;;1.00;0.00;;;;;13.18;81.49;100625.34;5058892;27;45334;-64
2023/11/07 01:53:56;;;;;;;;;0.00;0.00;;;;;13.13;81.26;100634.47;5058997;28;45393;-64
2023/11/07 01:56:23;;;;;;;;;1.25;0.75;;;;;13.19;81.25;100643.19;5058513;28;45566;-64
2023/11/07 01:58:49;;;;;;;;;0.00;0.00;;;;;13.21;81.30;100638.63;5071116;27;45531;-64
2023/11/07 02:01:15;;;;;;;;;1.00;0.00;;;;;13.18;81.29;100639.63;5060320;28;45668;-64
2023/11/07 02:03:40;;;;;;;;;0.00;0.00;;;;;13.11;81.30;100622.06;5058891;28;45461;-64
2023/11/07 02:06:06;;;;;;;;;1.00;0.00;;;;;13.19;81.25;100648.53;5060508;28;45382;-64
2023/11/07 02:08:32;;;;;;;;;0.50;0.50;;;;;13.08;81.13;100639.19;5062334;28;45454;-64
2023/11/07 02:10:57;;;;;;;;;2.00;0.00;;;;;13.19;81.01;100651.22;5075012;28;45293;-64
2023/11/07 02:13:23;;;;;;;;;0.75;0.75;;;;;13.16;81.03;100653.09;5062405;28;45247;-64
2023/11/07 02:15:48;;;;;;;;;1.25;1.00;;;;;13.11;81.10;100638.16;5061898;28;45649;-64
2023/11/07 02:18:14;;;;;;;;;0.25;0.00;;;;;13.14;81.18;100660.31;5080699;28;46164;-64
2023/11/07 02:20:40;;;;;;;;;1.25;1.00;;;;;13.12;81.52;100648.81;5079416;27;45308;-64
2023/11/07 02:23:29;;;;;;;;;3.25;1.00;;;;;13.05;80.88;100638.44;5074918;27;45577;-64
2023/11/07 02:25:55;;;;;;;;;1.00;1.00;;;;;13.08;80.99;100649.91;5073945;28;46230;-64
2023/11/07 02:28:21;;;;;;;;;1.25;1.00;;;;;13.09;80.93;100656.13;5073681;28;46116;-64
2023/11/07 02:30:47;;;;;;;;;0.00;0.00;;;;;13.04;80.88;100658.13;5061964;27;73788;-64
2023/11/07 02:33:14;;;;;;;;;1.00;1.00;;;;;13.07;80.77;100669.59;5061909;28;45321;-64
2023/11/07 02:35:41;;;;;;;;;1.00;0.50;;;;;12.84;80.77;100634.88;5061644;28;45603;-64
2023/11/07 02:38:07;;;;;;;;;1.00;1.00;;;;;12.93;80.61;100661.25;5061483;28;45793;-64
2023/11/07 02:40:32;;;;;;;;;0.75;0.75;;;;;13.01;80.68;100675.19;5062509;28;45331;-64
2023/11/07 02:43:00;;;;;;;;;2.00;1.00;;;;;13.07;80.38;100685.66;5065044;28;69299;-64
2023/11/07 02:45:25;;;;;;;;;1.00;0.00;;;;;13.03;80.62;100673.34;5065992;27;45468;-64
2023/11/07 02:47:51;;;;;;;;;1.00;0.50;;;;;13.04;80.55;100682.25;5072271;28;45353;-64
2023/11/07 02:50:17;;;;;;;;;0.00;0.00;;;;;13.02;80.57;100690.34;5064383;28;46109;-64
2023/11/07 02:52:42;;;;;;;;;3.00;1.50;;;;;12.98;80.04;100681.56;5061415;28;45583;-64
2023/11/07 02:55:08;;;;;;;;;2.25;1.00;;;;;12.97;80.22;100687.84;5061385;28;45236;-64
2023/11/07 02:57:34;;;;;;;;;0.25;0.25;;;;;12.93;80.34;100680.91;5061467;28;45471;-64
2023/11/07 02:59:59;;;;;;;;;0.00;0.00;;;;;12.91;80.05;100680.13;5068850;28;45321;-64
2023/11/07 03:02:24;;;;;;;;;0.25;0.25;;;;;12.89;80.21;100673.06;5062805;28;45390;-64
2023/11/07 03:04:53;;;;;;;;;0.00;0.00;;;;;12.90;80.22;100677.50;5074958;28;45440;-64
2023/11/07 03:07:18;;;;;;;;;0.00;0.00;;;;;12.93;80.04;100686.28;5060992;28;46080;-64
2023/11/07 03:09:43;;;;;;;;;1.00;1.00;;;;;12.87;79.72;100673.13;5060275;28;73128;-64
2023/11/07 03:12:12;;;;;;;;;2.50;1.75;;;;;12.75;79.99;100665.63;5072088;28;45312;-64
2023/11/07 03:14:38;;;;;;;;;1.25;0.00;;;;;12.86;79.87;100678.53;5063068;27;45279;-64
2023/11/07 03:17:06;;;;;;;;;0.25;0.25;;;;;12.86;79.65;100686.59;5068826;28;46268;-64
2023/11/07 03:19:32;;;;;;;;;2.00;1.00;;;;;12.84;79.81;100683.09;5080133;28;45927;-64
2023/11/07 03:21:57;;;;;;;;;1.00;1.00;;;;;12.84;79.80;100685.78;5069152;27;45410;-64
2023/11/07 03:24:22;;;;;;;;;0.00;0.00;;;;;12.83;79.88;100687.59;5060200;28;61962;-64
2023/11/07 03:26:47;;;;;;;;;1.00;1.00;;;;;12.82;79.72;100690.34;5059625;28;46283;-64
2023/11/07 03:29:13;;;;;;;;;1.00;1.00;;;;;12.76;79.41;100681.63;5062197;28;45428;-64
2023/11/07 03:31:39;;;;;;;;;1.00;1.00;;;;;12.75;79.39;100690.59;5060838;28;45373;-64
2023/11/07 03:34:05;;;;;;;;;0.00;0.00;;;;;12.74;79.64;100693.34;5066135;28;45581;-64
2023/11/07 03:36:30;;;;;;;;;1.00;1.00;;;;;12.66;79.27;100674.03;5060488;28;46973;-63
2023/11/07 03:38:55;;;;;;;;;1.00;1.00;;;;;12.72;79.56;100696.06;5059734;28;57231;-64
2023/11/07 03:41:24;;;;;;;;;2.00;1.25;;;;;12.73;79.14;100700.50;5061094;28;45342;-64
2023/11/07 03:43:49;;;;;;;;;1.00;1.00;;;;;12.74;79.38;100698.69;5073219;28;45496;-64
2023/11/07 03:46:15;;;;;;;;;1.00;1.00;;;;;12.75;79.28;100695.09;5068096;28;46380;-64
2023/11/07 03:48:40;;;;;;;;;1.25;1.25;;;;;12.70;79.32;100687.25;5075535;28;57669;-64
2023/11/07 03:51:05;;;;;;;;;1.25;1.00;;;;;12.69;79.47;100688.16;5080925;27;45419;-64
2023/11/07 03:53:31;;;;;;;;;1.25;1.00;;;;;12.60;79.58;100681.41;5062800;27;45576;-64
2023/11/07 03:55:57;;;;;;;;;3.00;1.50;;;;;12.68;79.30;100705.19;5060431;28;46289;-64
2023/11/07 03:58:22;;;;;;;;;1.75;1.75;;;;;12.68;79.20;100698.94;5064238;28;45373;-64
2023/11/07 04:00:48;;;;;;;;;0.75;0.75;;;;;12.66;79.00;100711.53;5068823;28;55103;-64
2023/11/07 04:03:13;;;;;;;;;1.25;1.00;;;;;12.67;79.22;100706.13;5059183;28;73136;-64
2023/11/07 04:05:38;;;;;;;;;1.00;1.00;;;;;12.63;79.21;100703.63;5060447;28;45613;-64
2023/11/07 04:08:04;;;;;;;;;0.00;0.00;;;;;12.68;78.85;100715.00;5059418;28;54872;-64
2023/11/07 04:10:29;;;;;;;;;1.75;1.75;;;;;12.64;78.82;100719.63;5060148;28;45645;-64
2023/11/07 04:12:55;;;;;;;;;1.00;1.00;;;;;12.57;78.81;100713.66;5062003;28;45348;-64
2023/11/07 04:15:21;;;;;;;;;1.75;1.00;;;;;12.57;78.92;100716.31;5068759;27;46049;-64
2023/11/07 04:17:47;;;;;;;;;2.25;1.00;;;;;12.60;79.16;100715.34;5074861;28;45456;-64
2023/11/07 04:20:13;;;;;;;;;1.00;1.00;;;;;12.55;79.11;100720.88;5078960;27;45325;-64
2023/11/07 04:22:39;;;;;;;;;1.75;1.00;;;;;12.59;79.13;100725.16;5061590;27;45326;-64
2023/11/07 04:25:06;;;;;;;;;2.00;2.00;;;;;12.51;79.00;100708.56;5070286;28;47276;-64
2023/11/07 04:27:32;;;;;;;;;2.00;2.00;;;;;12.60;78.86;100731.41;5075157;28;45903;-64
2023/11/07 04:29:58;;;;;;;;;1.00;1.00;;;;;12.60;78.99;100728.72;5059766;28;45629;-64
2023/11/07 04:32:25;;;;;;;;;2.00;1.00;;;;;12.51;78.88;100718.38;5059772;28;45454;-64
2023/11/07 04:34:51;;;;;;;;;1.75;1.75;;;;;12.52;78.73;100733.53;5059686;28;47105;-64
2023/11/07 04:37:16;;;;;;;;;1.00;0.00;;;;;12.39;78.87;100703.69;5059584;28;45519;-64
2023/11/07 04:39:41;;;;;;;;;1.00;1.00;;;;;12.52;79.10;100731.72;5064789;28;64907;-64
2023/11/07 04:42:07;;;;;;;;;4.00;3.00;;;;;12.49;78.63;100733.66;5059613;28;45547;-64
2023/11/07 04:44:33;;;;;;;;;3.50;2.25;;;;;12.45;78.69;100742.75;5078328;28;46168;-64
2023/11/07 04:47:02;;;;;;;;;3.75;2.00;;;;;12.38;78.57;100734.09;5063929;27;45865;-64
2023/11/07 04:49:29;;;;;;;;;2.75;1.50;;;;;12.46;78.56;100736.44;5075700;28;45508;-64
2023/11/07 04:51:55;;;;;;;;;2.75;2.75;;;;;12.43;78.57;100734.78;5075401;27;45498;-64
2023/11/07 04:54:20;;;;;;;;;3.50;2.00;;;;;12.45;78.44;100745.44;5059563;28;46150;-64
2023/11/07 04:56:45;;;;;;;;;2.00;2.00;;;;;12.47;78.36;100744.41;5058855;28;61236;-64
2023/11/07 04:59:11;;;;;;;;;1.75;1.75;;;;;12.42;78.40;100757.13;5062665;28;66358;-64
2023/11/07 05:01:36;;;;;;;;;3.75;2.25;;;;;12.38;78.40;100759.06;5060916;28;69471;-64
2023/11/07 05:04:02;;;;;;;;;1.50;1.50;;;;;12.27;78.59;100747.03;5063889;28;60647;-64
2023/11/07 05:06:27;;;;;;;;;2.00;2.00;;;;;12.31;78.40;100760.22;5059037;28;45311;-64
2023/11/07 05:08:53;;;;;;;;;2.00;1.00;;;;;12.28;78.58;100771.06;5059012;28;45318;-64
2023/11/07 05:11:18;;;;;;;;;4.25;2.25;;;;;11.99;78.52;100719.50;5059007;28;51488;-64
2023/11/07 05:13:44;;;;;;;;;1.75;0.50;;;;;12.23;78.57;100771.22;5059133;28;46993;-64
2023/11/07 05:16:10;;;;;;;;;2.00;2.00;;;;;12.22;78.80;100766.78;5060486;28;45670;-64
2023/11/07 05:18:35;;;;;;;;;2.75;2.00;;;;;12.20;78.74;100767.81;5079010;27;60689;-64
2023/11/07 05:21:00;;;;;;;;;2.00;2.00;;;;;12.15;78.51;100764.44;5059043;27;45264;-64
2023/11/07 05:23:26;;;;;;;;;3.00;2.00;;;;;12.09;78.72;100760.16;5057558;28;56117;-64
2023/11/07 05:25:51;;;;;;;;;2.25;2.25;;;;;12.17;78.83;100779.47;5059058;28;45323;-64
2023/11/07 05:28:17;;;;;;;;;4.25;2.00;;;;;12.11;78.39;100771.72;5061418;28;45468;-64
2023/11/07 05:30:42;;;;;;;;;1.50;1.00;;;;;12.11;78.59;100781.53;5057456;28;71913;-64
2023/11/07 05:33:07;;;;;;;;;5.00;2.00;;;;;12.05;78.93;100771.94;5058905;28;46049;-64
2023/11/07 05:35:33;;;;;;;;;2.50;2.25;;;;;12.04;78.53;100776.41;5058747;28;45436;-64
2023/11/07 05:37:59;;;;;;;;;3.00;3.00;;;;;12.05;78.93;100788.84;5058995;28;45366;-64
2023/11/07 05:40:24;;;;;;;;;2.00;2.00;;;;;12.01;78.50;100787.22;5057605;28;45539;-64
2023/11/07 05:42:52;;;;;;;;;2.50;2.00;;;;;11.97;78.49;100787.41;5063304;28;46248;-64
2023/11/07 05:45:17;;;;;;;;;3.00;2.75;;;;;11.95;78.71;100786.59;5073829;27;45546;-64
2023/11/07 05:47:43;;;;;;;;;4.00;1.00;;;;;11.96;79.00;100793.66;5068600;28;45305;-64
2023/11/07 05:50:10;;;;;;;;;4.25;4.25;;;;;11.92;78.96;100794.72;5062266;27;45514;-63
2023/11/07 05:52:36;;;;;;;;;2.50;2.50;;;;;11.98;78.78;100802.53;5068807;28;45384;-64
2023/11/07 05:55:06;;;;;;;;;1.75;1.75;;;;;11.96;78.99;100810.63;5075727;27;45253;-64
2023/11/07 05:57:32;;;;;;;;;3.00;2.00;;;;;11.89;79.14;100805.50;5068282;28;45564;-64
2023/11/07 05:59:58;;;;;;;;;2.00;2.00;;;;;11.97;78.84;100806.13;5074609;27;45280;-64
2023/11/07 06:02:24;;;;;;;;;2.25;2.25;;;;;11.94;78.95;100803.56;5060985;28;47321;-64
2023/11/07 06:04:50;;;;;;;;;3.00;1.50;;;;;11.93;78.80;100805.38;5071998;28;45305;-64
2023/11/07 06:07:15;;;;;;;;;4.00;2.00;;;;;11.96;78.85;100812.41;5063043;28;45321;-64
2023/11/07 06:09:40;;;;;;;;;2.00;2.00;;;;;11.93;78.57;100807.16;5057555;28;66004;-64
2023/11/07 06:12:06;;;;;;;;;4.50;2.00;;;;;11.91;78.69;100799.22;5058069;28;45921;-63
2023/11/07 06:14:32;;;;;;;;;4.75;3.50;;;;;11.93;78.77;100808.06;5058292;28;45603;-64
2023/11/07 06:16:57;;;;;;;;;3.00;2.25;;;;;11.93;78.69;100810.72;5067241;28;46332;-64
2023/11/07 06:19:23;;;;;;;;;3.00;1.00;;;;;11.92;78.56;100808.09;5077630;28;68020;-64
2023/11/07 06:21:49;;;;;;;;;6.00;3.50;;;;;11.92;78.76;100808.97;5076656;27;46490;-64
2023/11/07 06:24:15;;;;;;;;;3.00;2.25;;;;;11.79;78.87;100792.44;5059842;27;45599;-64
2023/11/07 06:26:41;;;;;;;;;2.25;2.25;;;;;11.86;78.89;100811.81;5058482;28;45421;-63
2023/11/07 06:29:06;;;;;;;;;3.75;1.75;;;;;11.79;78.90;100805.81;5058136;28;45307;-64
2023/11/07 06:31:32;;;;;;;;;5.75;2.75;;;;;11.88;78.55;100831.38;5057656;28;67562;-64
2023/11/07 06:33:58;;;;;;;;;3.00;3.00;;;;;11.84;78.55;100829.72;5057591;28;45430;-64
2023/11/07 06:36:24;;;;;;;;;2.00;1.00;;;;;11.82;78.88;100834.28;5058423;28;45482;-64
2023/11/07 06:38:49;;;;;;;;;3.00;3.00;;;;;11.83;78.51;100838.72;5057913;28;45570;-64
2023/11/07 06:41:17;;;;;;;;;4.00;2.25;;;;;11.78;78.60;100840.69;5067354;28;46151;-64
2023/11/07 06:43:43;;;;;;;;;3.25;2.00;;;;;11.73;78.55;100840.84;5072420;27;45429;-63
2023/11/07 06:46:08;;;;;;;;;5.25;4.00;;;;;11.74;78.60;100845.22;5064882;27;45456;-64
2023/11/07 06:48:34;;;;;;;;;4.25;3.25;;;;;11.63;78.80;100828.72;5068548;28;45624;-64
2023/11/07 06:51:02;;;;;;;;;4.25;3.25;;;;;11.70;78.78;100843.59;5067077;28;46215;-63
2023/11/07 06:53:28;;;;;;;;;5.00;4.00;;;;;11.72;79.02;100852.44;5066405;27;45369;-64
2023/11/07 06:55:53;;;;;;;;;3.25;2.75;;;;;11.71;78.50;100857.84;5064735;28;45423;-66
2023/11/07 06:58:19;;;;;;;;;4.50;3.00;;;;;11.66;78.88;100861.56;5063790;28;45685;-64
2023/11/07 07:00:44;;;;;;;;;3.25;2.00;;;;;11.66;78.66;100856.22;5061975;28;45260;-64
2023/11/07 07:03:09;;;;;;;;;4.00;4.00;;;;;11.63;78.48;100861.66;5064448;28;61809;-64
2023/11/07 07:05:35;;;;;;;;;4.00;2.75;;;;;11.63;78.66;100872.38;5061444;28;45311;-64
2023/11/07 07:08:00;;;;;;;;;2.75;2.75;;;;;11.62;78.72;100877.75;5063502;28;45554;-64
2023/11/07 07:10:26;;;;;;;;;6.50;4.00;;;;;11.56;78.84;100867.28;5067042;27;46494;-64
2023/11/07 07:12:51;;;;;;;;;3.25;2.75;;;;;11.57;78.89;100871.69;5064403;27;45308;-64
2023/11/07 07:15:17;;;;;;;;;3.50;3.00;;;;;11.60;78.88;100885.84;5063648;28;45240;-64
2023/11/07 07:17:42;;;;;;;;;3.25;3.25;;;;;11.55;78.81;100882.44;5068339;27;45508;-64
2023/11/07 07:20:14;;;;;;;;;3.00;3.00;;;;;11.49;78.99;100870.19;5078092;27;46098;-64
2023/11/07 07:22:44;;;;;;;;;4.50;3.00;;;;;11.57;79.11;100896.63;5071246;27;45457;-64
2023/11/07 07:25:15;;;;;;;;;3.00;3.00;;;;;11.57;78.65;100895.75;5064773;28;45489;-64
2023/11/07 07:27:48;;;;;;;;;3.75;2.50;;;;;11.50;78.82;100884.41;5059598;28;45342;-64
2023/11/07 07:30:20;;;;;;;;;5.00;4.00;;;;;11.58;78.95;100897.53;5060889;28;45377;-64
2023/11/07 07:32:49;;;;;;;;;3.75;3.25;;;;;11.59;79.17;100900.13;5073201;28;45401;-64
2023/11/07 07:35:15;;;;;;;;;3.25;2.25;;;;;11.58;79.29;100902.88;5069871;27;45406;-64
2023/11/07 07:37:43;;;;;;;;;5.25;3.75;;;;;11.61;79.13;100910.75;5071230;27;47090;-65
2023/11/07 07:40:10;;;;;;;;;3.00;3.00;;;;;11.61;78.79;100905.41;5075267;27;45651;-64
2023/11/07 07:42:35;;;;;;;;;3.50;3.50;;;;;11.66;78.94;100916.81;5069323;28;45425;-63
2023/11/07 07:45:03;;;;;;;;;4.25;3.25;;;;;11.58;79.14;100906.41;5074575;27;45462;-63
2023/11/07 07:47:28;;;;;;;;;3.00;3.00;;;;;11.58;78.90;100919.78;5069575;28;45673;-64
2023/11/07 07:49:55;;;;;;;;;3.25;3.25;;;;;11.60;78.92;100920.59;5071903;28;45381;-64
2023/11/07 07:52:22;;;;;;;;;2.75;2.75;;;;;11.57;78.73;100920.69;5060166;28;45442;-64
2023/11/07 07:54:48;;;;;;;;;4.50;3.50;;;;;11.58;78.82;100925.13;5067736;28;45513;-64
2023/11/07 07:57:17;;;;;;;;;3.00;3.00;;;;;11.64;78.71;100935.63;5070507;28;45492;-64
2023/11/07 07:59:44;;;;;;;;;2.00;2.00;;;;;11.60;78.62;100946.47;5070214;27;47050;-63
2023/11/07 08:02:10;;;;;;;;;5.00;4.00;;;;;11.58;79.06;100938.50;5070698;28;45657;-63
2023/11/07 08:04:35;;;;;;;;;4.50;4.50;;;;;11.57;78.82;100939.41;5071197;27;45530;-64
2023/11/07 08:07:00;;;;;;;;;3.50;1.75;;;;;11.59;78.99;100942.03;5075645;27;46704;-63
2023/11/07 08:09:26;;;;;;;;;4.00;3.75;;;;;11.56;79.28;100936.78;5066105;27;47202;-64
2023/11/07 08:11:56;;;;;;;;;8.25;4.50;;;;;11.58;78.79;100940.31;5068700;27;45291;-63
2023/11/07 08:14:24;;;;;;;;;3.00;3.00;;;;;11.60;79.14;100936.63;5073426;27;45409;-63
2023/11/07 08:16:51;;;;;;;;;5.25;3.00;;;;;11.64;78.89;100951.66;5063555;27;45560;-63
2023/11/07 08:19:17;;;;;;;;;3.00;3.00;;;;;11.68;78.73;100957.78;5067411;28;46908;-63
2023/11/07 08:21:43;;;;;;;;;3.00;3.00;;;;;11.64;78.75;100962.38;5085578;27;45753;-63
2023/11/07 08:24:09;;;;;;;;;4.00;3.00;;;;;11.71;78.69;100971.06;5064685;27;45669;-64
2023/11/07 08:26:35;;;;;;;;;4.00;3.25;;;;;11.72;79.02;100962.09;5071482;27;45533;-64
2023/11/07 08:29:05;;;;;;;;;5.00;4.50;;;;;11.76;79.01;100968.19;5076425;27;47540;-63
2023/11/07 08:31:31;;;;;;;;;5.00;4.00;;;;;11.70;78.86;100974.66;5073505;27;45418;-64
2023/11/07 08:33:56;;;;;;;;;3.75;3.75;;;;;11.73;78.83;100974.53;5077682;27;45364;-63
2023/11/07 08:36:21;;;;;;;;;2.00;2.00;;;;;11.68;78.83;100957.78;5081421;27;45601;-63
2023/11/07 08:38:47;;;;;;;;;3.50;3.50;;;;;11.67;78.72;100959.56;5060556;28;59266;-63
2023/11/07 08:41:12;;;;;;;;;4.00;3.00;;;;;11.69;78.66;100970.22;5061114;27;45468;-64
2023/11/07 08:43:38;;;;;;;;;3.75;2.75;;;;;11.66;78.80;100972.97;5078687;27;45617;-63
2023/11/07 08:46:03;;;;;;;;;4.50;3.75;;;;;11.69;78.79;100970.22;5077593;27;73333;-63
2023/11/07 08:48:28;;;;;;;;;6.75;4.50;;;;;11.61;78.59;100972.25;5068185;28;45433;-64
2023/11/07 08:50:54;;;;;;;;;3.25;3.25;;;;;11.64;78.43;100972.16;5076108;27;45405;-64
2023/11/07 08:53:19;;;;;;;;;5.75;4.00;;;;;11.68;78.79;100981.84;5071782;28;45610;-63
2023/11/07 08:55:49;;;;;;;;;4.50;4.50;;;;;11.70;78.79;100988.00;5077939;27;45435;-63
2023/11/07 08:58:15;;;;;;;;;4.75;3.75;;;;;11.72;78.83;100988.81;5070779;27;46336;-64
2023/11/07 09:00:43;;;;;;;;;4.00;4.00;;;;;11.67;78.88;100982.75;5067470;27;45617;-64
2023/11/07 09:03:08;;;;;;;;;3.75;2.75;;;;;11.65;78.52;100984.63;5067968;27;45539;-64
2023/11/07 09:05:34;;;;;;;;;5.50;5.00;;;;;11.68;78.59;100987.19;5075448;27;45574;-64
2023/11/07 09:07:59;;;;;;;;;2.25;2.25;;;;;11.73;78.67;100993.25;5070707;27;46020;-64
2023/11/07 09:10:25;;;;;;;;;5.75;4.00;;;;;11.70;78.65;100992.50;5069691;27;46037;-64
2023/11/07 09:12:50;;;;;;;;;4.50;3.00;;;;;11.72;78.53;100996.00;5068615;27;45379;-64
2023/11/07 09:15:19;;;;;;;;;3.50;3.00;;;;;11.76;78.52;101002.97;5073172;27;66331;-64
2023/11/07 09:17:45;;;;;;;;;3.00;3.00;;;;;11.77;78.69;100994.91;5070576;28;45578;-64
2023/11/07 09:20:14;;;;;;;;;5.00;3.75;;;;;11.71;78.36;100995.13;5077688;27;45578;-64
2023/11/07 09:22:41;;;;;;;;;5.50;2.00;;;;;11.79;78.17;101002.88;5070392;27;45539;-64
2023/11/07 09:25:07;;;;;;;;;4.00;4.00;;;;;11.80;78.25;100999.28;5067890;27;45706;-64
2023/11/07 09:27:32;;;;;;;;;2.25;2.25;;;;;11.79;77.93;101001.06;5068120;27;47055;-64
2023/11/07 09:29:59;;;;;;;;;5.25;3.75;;;;;11.77;78.12;100991.34;5063856;27;45528;-64
2023/11/07 09:32:24;;;;;;;;;2.75;2.00;;;;;11.91;77.89;101006.94;5063440;27;46578;-64
2023/11/07 09:34:50;;;;;;;;;3.25;3.25;;;;;11.93;77.71;101015.81;5063697;27;45568;-63
2023/11/07 09:37:16;;;;;;;;;3.75;2.00;;;;;11.93;78.32;100997.97;5070029;27;46251;-64
2023/11/07 09:39:41;;;;;;;;;3.75;3.00;;;;;11.89;77.88;100996.28;5068584;27;47332;-64
2023/11/07 09:42:07;;;;;;;;;3.25;3.25;;;;;11.93;78.26;101010.47;5070312;27;45415;-64
2023/11/07 09:44:35;;;;;;;;;3.50;3.25;;;;;12.00;77.74;101012.88;5063391;27;45651;-64
2023/11/07 09:47:03;;;;;;;;;5.50;3.00;;;;;11.99;77.68;101010.25;5069711;27;47318;-64
2023/11/07 09:49:29;;;;;;;;;3.75;3.25;;;;;12.02;77.54;101024.41;5076237;27;45312;-64
2023/11/07 09:51:58;;;;;;;;;2.50;2.50;;;;;12.01;77.99;101021.78;5075654;27;45588;-64
2023/11/07 09:54:25;;;;;;;;;3.75;2.50;;;;;12.08;77.94;101026.00;5060262;28;45852;-64
2023/11/07 09:56:52;;;;;;;;;4.00;2.00;;;;;12.09;77.70;101030.41;5073044;27;45894;-64
2023/11/07 09:59:29;;;;;;;;;4.00;4.00;;;;;12.13;77.73;101036.53;5070541;27;45382;-64
2023/11/07 10:01:55;;;;;;;;;1.00;1.00;;;;;12.10;77.56;101042.03;5063736;27;45484;-64
2023/11/07 10:04:21;;;;;;;;;1.00;0.00;;;;;12.15;77.71;101040.06;5075076;27;45514;-64
2023/11/07 10:06:47;;;;;;;;;2.75;2.00;;;;;12.17;77.74;101036.38;5076940;27;45586;-64
2023/11/07 10:09:14;;;;;;;;;3.75;2.75;;;;;12.17;77.59;101027.50;5069490;27;45621;-64
2023/11/07 10:11:44;;;;;;;;;4.00;2.00;;;;;12.27;77.54;101038.75;5067347;27;45503;-65
2023/11/07 10:14:09;;;;;;;;;3.50;3.25;;;;;12.28;77.65;101036.03;5069687;27;45491;-64
2023/11/07 10:16:43;;;;;;;;;2.25;1.00;;;;;12.35;76.86;101037.56;5072986;27;46995;-67
2023/11/07 10:19:19;;;;;;;;;2.25;2.25;;;;;12.33;77.28;101034.06;5075744;27;45589;-64
2023/11/07 10:21:44;;;;;;;;;1.00;1.00;;;;;12.37;77.03;101027.66;5069430;27;45445;-64
2023/11/07 10:24:10;;;;;;;;;2.00;2.00;;;;;12.46;76.76;101037.16;5071224;27;45771;-64
2023/11/07 10:26:35;;;;;;;;;2.50;2.00;;;;;12.42;76.72;101025.69;5072317;27;70674;-64
2023/11/07 10:29:12;;;;;;;;;2.50;1.00;;;;;12.53;76.23;101036.03;5070179;28;64779;-64
2023/11/07 10:31:38;;;;;;;;;2.00;2.00;;;;;12.53;76.80;101037.81;5078146;27;45546;-64
2023/11/07 10:34:16;;;;;;;;;3.50;2.50;;;;;12.55;76.66;101036.00;5072666;27;45649;-64
2023/11/07 10:36:42;;;;;;;;;1.50;1.00;;;;;12.63;76.31;101052.66;5074379;27;45785;-64
2023/11/07 10:39:21;;;;;;;;;3.25;2.00;;;;;12.68;76.33;101045.31;5074220;27;45796;-64
2023/11/07 10:41:50;;;;;;;;;4.00;2.25;;;;;12.72;76.18;101067.50;5079844;27;45620;-64
2023/11/07 10:44:23;;;;;;;;;2.00;2.00;;;;;12.64;75.82;101041.00;5083009;27;45516;-64
2023/11/07 10:46:50;;;;;;;;;3.25;1.00;;;;;12.74;75.77;101044.22;5072092;27;47250;-64
2023/11/07 10:49:16;;;;;;;;;1.00;0.00;;;;;12.82;75.59;101066.25;5073466;27;46117;-64
2023/11/07 10:51:42;;;;;;;;;4.00;1.50;;;;;12.86;75.33;101049.09;5075427;27;45697;-64
2023/11/07 10:54:07;;;;;;;;;2.00;1.25;;;;;12.88;75.07;101039.25;5071576;27;45834;-64
2023/11/07 10:56:36;;;;;;;;;2.00;1.50;;;;;12.93;75.16;101057.78;5069671;27;46198;-64
2023/11/07 10:59:02;;;;;;;;;3.50;1.50;;;;;12.92;75.25;101043.53;5074997;27;45425;-64
2023/11/07 11:01:30;;;;;;;;;2.00;2.00;;;;;12.95;75.39;101038.06;5067641;27;45733;-64
2023/11/07 11:03:59;;;;;;;;;3.00;3.00;;;;;13.02;75.36;101044.06;5076917;27;45542;-64
2023/11/07 11:06:26;;;;;;;;;2.00;1.50;;;;;13.05;75.27;101043.09;5074798;28;47110;-64
2023/11/07 11:08:56;;;;;;;;;1.75;1.00;;;;;13.03;75.30;101032.44;5077419;27;45255;-64
2023/11/07 11:11:24;;;;;;;;;3.25;2.25;;;;;13.03;74.70;101027.06;5074898;28;45620;-64
2023/11/07 11:13:52;;;;;;;;;3.25;2.25;;;;;13.16;74.83;101041.75;5071468;27;45581;-64
2023/11/07 11:16:19;;;;;;;;;2.50;2.00;;;;;13.22;74.41;101046.00;5066812;27;47379;-64
2023/11/07 11:19:06;;;;;;;;;4.50;2.50;;;;;13.25;74.15;101037.84;5079651;27;45427;-64
2023/11/07 11:21:54;;;;;;;;;3.00;1.75;;;;;13.27;74.15;101037.78;5065196;27;45669;-64